• Join FlightAware (Why Join?)
  • Login
  • US Flag 
08:50PM EDT


 

Airport Tracker/Info


-or-


 

Live Flight TrackerFlight Track Log ✈ SWA1025 ✈ 14-Jun-2014 ✈ KBWI - KRDU

Flight Track Log - Related Links

Times and Time Zones

All times are in EDT time to prevent confusion due to time zone crossing. See the SWA1025 flight status page for this flight to view local times or setup timezone preferences in your user account.

Time Position Orientation Groundspeed Altitude Reporting Facility
EDT Latitude Longitude Course Direction KTS MPH feet Rate Location/Type
08:45AM 39.1667 -76.7333 195° South 199 229 2,000  Level Potomac TRACON
08:46AM 39.1167 -76.7500 195° South 252 290 4,700 3,060 Climbing Potomac TRACON
08:47AM 39.0667 -76.6833 134° Southeast 263 303 8,200 2,700 Climbing Potomac TRACON
08:48AM 39.0000 -76.6167 142° Southeast 303 349 10,200 1,740 Climbing Potomac TRACON
08:49AM 38.9167 -76.6333 189° South 318 366 11,600 1,800 Climbing Potomac TRACON
08:50AM 38.8333 -76.6500 189° South 356 410 13,800 1,980 Climbing Potomac TRACON
08:51AM 38.7917 -76.6650 196° South 340 391 14,800 2,280 Climbing Washington Center
08:52AM 38.6714 -76.6953 191° South 362 417 17,500 1,980 Climbing Washington Center
08:53AM 38.5678 -76.7217 191° South 373 429 19,000 1,680 Climbing Washington Center
08:54AM 38.4539 -76.7117 176° South 409 471 21,000 1,500 Climbing Washington Center
08:55AM 38.3358 -76.6947 174° South 424 488 22,200 1,320 Climbing Washington Center
08:56AM 38.2217 -76.6786 174° South 439 505 23,800 1,740 Climbing Washington Center
08:57AM 38.0711 -76.6586 174° South 451 519 25,800 2,160 Climbing Washington Center
08:58AM 37.9489 -76.6461 175° South 445 512 28,200 1,860 Climbing Washington Center
08:59AM 37.8356 -76.6606 186° South 417 480 29,700 1,080 Climbing Washington Center
09:00AM 37.7192 -76.6758 186° South 417 480 30,500 900 Climbing Washington Center
09:01AM 37.6014 -76.6897 185° South 422 486 31,600 1,080 Climbing Washington Center
09:02AM 37.4606 -76.7094 186° South 422 486 32,800 960 Climbing Washington Center
09:03AM 37.3489 -76.7511 197° South 423 487 33,600 540 Climbing Washington Center
09:04AM 37.2381 -76.7978 199° South 417 480 34,000 180 Climbing Washington Center
09:05AM 37.1294 -76.8442 199° South 413 475 34,000  Level Washington Center
09:06AM 37.0225 -76.8894 199° South 410 472 34,000  Level Washington Center
09:07AM 36.9169 -76.9322 198° South 402 463 34,000  Level Washington Center
09:08AM 36.8128 -76.9764 199° South 400 460 34,000  Level Washington Center
09:09AM 36.6878 -77.0261 198° South 395 455 34,000  Level Washington Center
09:10AM 36.5847 -77.0697 199° South 393 452 34,000  Level Washington Center
09:11AM 36.4803 -77.1122 198° South 395 455 34,000  Level Washington Center
09:12AM 36.3775 -77.1531 198° South 392 451 34,000  Level Washington Center
09:13AM 36.2533 -77.2042 198° South 392 451 34,000  Level Washington Center
09:14AM 36.1528 -77.2436 198° South 392 451 34,000  Level Washington Center
09:16AM 36.0492 -77.2867 199° South 392 451 34,000  Level Washington Center
09:17AM 35.9447 -77.3286 198° South 392 451 34,000  Level Washington Center
09:18AM 35.8397 -77.3697 198° South 394 453 34,000  Level Washington Center
09:19AM 35.7153 -77.4281 201° Southwest 397 457 34,000  Level Washington Center
09:20AM 35.6239 -77.5067 215° Southwest 399 459 34,000  Level Washington Center
09:21AM 35.5336 -77.5881 216° Southwest 399 459 34,000  Level Washington Center
09:22AM 35.4428 -77.6686 216° Southwest 400 460 34,000  Level Washington Center
09:23AM 35.3497 -77.7486 215° Southwest 403 464 34,000  Level Washington Center
09:24AM 35.2586 -77.8289 216° Southwest 402 463 34,000  Level Washington Center
09:25AM 35.1672 -77.9094 216° Southwest 405 466 34,000  Level Washington Center
09:26AM 35.0558 -78.0056 215° Southwest 404 465 34,000  Level Washington Center
09:27AM 34.9636 -78.0861 216° Southwest 405 466 34,000  Level Washington Center
09:28AM 34.8719 -78.1658 216° Southwest 405 466 34,000  Level Washington Center
09:29AM 34.7739 -78.2483 215° Southwest 404 465 34,000  Level Washington Center
09:30AM 34.6831 -78.3272 216° Southwest 404 465 34,000  Level Washington Center
09:31AM 34.6156 -78.3922 218° Southwest 423 487 34,000  Level Jacksonville Center
09:32AM 34.5203 -78.4650 212° Southwest 412 474 34,000  Level Jacksonville Center
09:33AM 34.4414 -78.5397 218° Southwest 412 474 34,000  Level Jacksonville Center
09:34AM 34.3481 -78.6172 214° Southwest 412 474 34,000  Level Jacksonville Center
09:35AM 34.2592 -78.6994 217° Southwest 412 474 34,000  Level Jacksonville Center
09:36AM 34.1664 -78.7944 220° Southwest 412 474 34,000  Level Jacksonville Center
09:37AM 34.0792 -78.8786 219° Southwest 407 468 34,000  Level Jacksonville Center
09:38AM 33.9922 -78.9628 219° Southwest 407 468 34,000  Level Jacksonville Center
09:39AM 33.8564 -79.0950 219° Southwest 400 460 34,000  Level Washington Center
09:40AM 33.7711 -79.1797 220° Southwest 400 460 34,000  Level Washington Center
09:41AM 33.7028 -79.2475 220° Southwest 400 460 34,000 -180 Level Washington Center
09:42AM 33.6428 -79.3539 236° Southwest 398 458 33,700 -600 Descending Washington Center
09:43AM 33.6800 -79.4806 289° West 407 468 32,900 -1,260 Descending Washington Center
09:44AM 33.8081 -79.5186 346° North 420 483 31,100 -2,040 Descending Washington Center
09:45AM 33.9186 -79.4800 16° North 420 483 28,800 -2,280 Descending Washington Center
09:46AM 34.0269 -79.4406 17° North 415 478 26,500 -2,280 Descending Washington Center
09:47AM 34.1342 -79.4047 15° North 408 470 24,100 -1,800 Descending Washington Center
09:49AM 34.2383 -79.3681 16° North 401 461 22,800 -1,680 Descending Washington Center
09:50AM 34.3614 -79.3269 15° North 392 451 20,600 -2,160 Descending Washington Center
09:51AM 34.4631 -79.2917 16° North 388 447 18,500 -2,040 Descending Washington Center
09:52AM 34.5633 -79.2567 16° North 366 421 16,400 -2,040 Descending Washington Center
09:53AM 34.6619 -79.2208 17° North 347 399 14,300 -2,040 Descending Washington Center
09:54AM 34.7519 -79.1897 16° North 338 389 12,200 -1,620 Descending Washington Center
09:55AM 34.8294 -79.1619 16° North 329 379 11,000 -720 Descending Washington Center
09:56AM 34.9367 -79.1247 16° North 330 380 10,800 -420 Descending Washington Center
09:57AM 35.0336 -79.0903 16° North 352 405 10,200 -420 Descending Washington Center
09:58AM 35.1281 -79.0569 16° North 349 402 10,000 -180 Descending Washington Center
09:58AM 35.1847 -79.0378 15° North 336 387 10,000 -300 Level Washington Center
09:59AM 35.2231 -79.0231 17° North 332 382 9,700 -900 Descending Washington Center
10:00AM 35.3039 -78.9956 16° North 307 353 8,700 -840 Descending Washington Center
10:01AM 35.3767 -78.9692 16° North 304 350 8,000 -480 Descending Washington Center
10:02AM 35.4744 -78.9497 North 298 343 7,800 -660 Descending Washington Center
10:03AM 35.5531 -78.9342 North 292 336 6,700 -1,380 Descending Washington Center
10:04AM 35.6300 -78.9206 North 284 327 5,100 -1,380 Descending Washington Center
10:05AM 35.7069 -78.9103 North 282 325 3,900 -1,080 Descending Washington Center
10:06AM 35.7678 -78.9014 North 241 277 2,900 -1,020 Descending Washington Center
10:07AM 35.8083 -78.8653 36° Northeast 148 170 1,900 -840 Descending Washington Center
10:08AM 35.8350 -78.8336 44° Northeast 165 190 1,200 -540 Descending Washington Center
10:09AM 35.8689 -78.7936 44° Northeast 156 180 800 -420 Descending Washington Center
10:11AM 35.8667 -78.7833 11° North  Level FlightAware Approximate